sensor_id;sensor_type;location;lat;lon;timestamp;noise_LAeq;noise_LA_min;noise_LA_max;noise_LA01;noise_LA95
37279;Laerm;7458;49.002;8.472;2023-05-07T00:00:04;40.90;36.45;56.68;;
37279;Laerm;7458;49.002;8.472;2023-05-07T00:02:34;40.92;35.94;55.07;;
37279;Laerm;7458;49.002;8.472;2023-05-07T00:04:59;43.89;35.36;68.39;;
37279;Laerm;7458;49.002;8.472;2023-05-07T00:07:25;40.59;35.36;61.47;;
37279;Laerm;7458;49.002;8.472;2023-05-07T00:09:51;40.84;35.94;49.55;;
37279;Laerm;7458;49.002;8.472;2023-05-07T00:12:16;41.31;36.45;51.12;;
37279;Laerm;7458;49.002;8.472;2023-05-07T00:14:42;41.07;36.20;49.95;;
37279;Laerm;7458;49.002;8.472;2023-05-07T00:17:08;40.25;35.66;61.42;;
37279;Laerm;7458;49.002;8.472;2023-05-07T00:19:34;39.95;35.36;47.54;;
37279;Laerm;7458;49.002;8.472;2023-05-07T00:22:00;39.91;34.31;51.22;;
37279;Laerm;7458;49.002;8.472;2023-05-07T00:24:25;40.49;35.04;51.75;;
37279;Laerm;7458;49.002;8.472;2023-05-07T00:26:51;39.71;35.04;49.49;;
37279;Laerm;7458;49.002;8.472;2023-05-07T00:29:18;50.22;35.66;70.14;;
37279;Laerm;7458;49.002;8.472;2023-05-07T00:31:44;44.88;35.94;62.53;;
37279;Laerm;7458;49.002;8.472;2023-05-07T00:34:10;45.03;35.94;60.72;;
37279;Laerm;7458;49.002;8.472;2023-05-07T00:36:35;48.26;36.20;67.57;;
37279;Laerm;7458;49.002;8.472;2023-05-07T00:39:01;40.56;36.45;50.45;;
37279;Laerm;7458;49.002;8.472;2023-05-07T00:41:29;40.17;35.36;55.07;;
37279;Laerm;7458;49.002;8.472;2023-05-07T00:43:58;40.67;35.66;55.95;;
37279;Laerm;7458;49.002;8.472;2023-05-07T00:46:24;40.53;35.94;48.80;;
37279;Laerm;7458;49.002;8.472;2023-05-07T00:48:51;39.82;34.69;54.22;;
37279;Laerm;7458;49.002;8.472;2023-05-07T00:51:18;41.52;35.66;54.81;;
37279;Laerm;7458;49.002;8.472;2023-05-07T00:53:44;40.31;35.94;48.52;;
37279;Laerm;7458;49.002;8.472;2023-05-07T00:56:10;51.30;36.45;70.28;;
37279;Laerm;7458;49.002;8.472;2023-05-07T00:58:37;48.35;34.69;66.35;;
37279;Laerm;7458;49.002;8.472;2023-05-07T01:01:03;40.65;35.66;55.92;;
37279;Laerm;7458;49.002;8.472;2023-05-07T01:03:29;40.46;35.94;49.36;;
37279;Laerm;7458;49.002;8.472;2023-05-07T01:05:58;40.03;35.36;50.81;;
37279;Laerm;7458;49.002;8.472;2023-05-07T01:08:25;47.99;35.36;67.50;;
37279;Laerm;7458;49.002;8.472;2023-05-07T01:10:55;41.61;34.69;64.56;;
37279;Laerm;7458;49.002;8.472;2023-05-07T01:13:21;45.18;35.94;70.74;;
37279;Laerm;7458;49.002;8.472;2023-05-07T01:15:48;41.22;36.69;59.94;;
37279;Laerm;7458;49.002;8.472;2023-05-07T01:18:14;40.61;35.66;55.72;;
37279;Laerm;7458;49.002;8.472;2023-05-07T01:20:41;39.74;34.69;50.06;;
37279;Laerm;7458;49.002;8.472;2023-05-07T01:23:08;41.86;35.04;58.59;;
37279;Laerm;7458;49.002;8.472;2023-05-07T01:25:36;39.66;33.90;51.37;;
37279;Laerm;7458;49.002;8.472;2023-05-07T01:28:01;39.69;34.31;47.42;;
37279;Laerm;7458;49.002;8.472;2023-05-07T01:30:28;51.66;35.04;71.05;;
37279;Laerm;7458;49.002;8.472;2023-05-07T01:33:09;45.65;35.04;62.26;;
37279;Laerm;7458;49.002;8.472;2023-05-07T01:35:42;38.86;34.69;51.89;;
37279;Laerm;7458;49.002;8.472;2023-05-07T01:38:09;40.68;35.36;54.84;;
37279;Laerm;7458;49.002;8.472;2023-05-07T01:40:35;39.48;34.69;56.35;;
37279;Laerm;7458;49.002;8.472;2023-05-07T01:43:02;46.90;35.04;65.28;;
37279;Laerm;7458;49.002;8.472;2023-05-07T01:45:30;40.09;35.36;51.52;;
37279;Laerm;7458;49.002;8.472;2023-05-07T01:47:58;40.09;35.04;49.15;;
37279;Laerm;7458;49.002;8.472;2023-05-07T01:50:25;39.80;34.69;48.55;;
37279;Laerm;7458;49.002;8.472;2023-05-07T01:52:51;39.63;35.04;62.11;;
37279;Laerm;7458;49.002;8.472;2023-05-07T01:55:17;39.80;34.31;47.12;;
37279;Laerm;7458;49.002;8.472;2023-05-07T01:57:43;40.47;34.69;53.67;;
37279;Laerm;7458;49.002;8.472;2023-05-07T02:00:09;40.37;35.04;49.49;;
37279;Laerm;7458;49.002;8.472;2023-05-07T02:02:35;52.49;35.94;70.54;;
37279;Laerm;7458;49.002;8.472;2023-05-07T02:05:01;50.48;35.36;71.21;;
37279;Laerm;7458;49.002;8.472;2023-05-07T02:07:28;40.42;35.66;46.87;;
37279;Laerm;7458;49.002;8.472;2023-05-07T02:09:54;39.68;32.93;53.05;;
37279;Laerm;7458;49.002;8.472;2023-05-07T02:12:21;39.81;34.69;49.72;;
37279;Laerm;7458;49.002;8.472;2023-05-07T02:14:47;40.91;35.94;53.43;;
37279;Laerm;7458;49.002;8.472;2023-05-07T02:17:13;40.07;33.90;49.45;;
37279;Laerm;7458;49.002;8.472;2023-05-07T02:19:39;40.94;35.04;70.44;;
37279;Laerm;7458;49.002;8.472;2023-05-07T02:22:05;39.76;35.36;51.35;;
37279;Laerm;7458;49.002;8.472;2023-05-07T02:24:30;39.61;35.66;50.32;;
37279;Laerm;7458;49.002;8.472;2023-05-07T02:26:56;39.62;35.04;52.58;;
37279;Laerm;7458;49.002;8.472;2023-05-07T02:29:22;39.54;35.36;50.11;;
37279;Laerm;7458;49.002;8.472;2023-05-07T02:31:47;39.72;35.04;50.32;;
37279;Laerm;7458;49.002;8.472;2023-05-07T02:34:19;41.07;35.36;53.56;;
37279;Laerm;7458;49.002;8.472;2023-05-07T02:36:45;40.09;35.66;52.84;;
37279;Laerm;7458;49.002;8.472;2023-05-07T02:39:12;40.70;34.69;48.15;;
37279;Laerm;7458;49.002;8.472;2023-05-07T02:41:38;39.97;34.31;49.83;;
37279;Laerm;7458;49.002;8.472;2023-05-07T02:44:04;40.82;36.10;51.22;;
37279;Laerm;7458;49.002;8.472;2023-05-07T02:46:29;41.69;36.91;55.98;;
37279;Laerm;7458;49.002;8.472;2023-05-07T02:48:55;41.32;35.04;54.65;;
37279;Laerm;7458;49.002;8.472;2023-05-07T02:51:22;42.77;35.36;54.82;;
37279;Laerm;7458;49.002;8.472;2023-05-07T02:53:48;41.77;35.94;58.83;;
37279;Laerm;7458;49.002;8.472;2023-05-07T02:56:14;50.77;36.20;69.81;;
37279;Laerm;7458;49.002;8.472;2023-05-07T02:58:40;41.90;37.52;51.06;;
37279;Laerm;7458;49.002;8.472;2023-05-07T03:01:08;40.85;35.36;53.50;;
37279;Laerm;7458;49.002;8.472;2023-05-07T03:03:35;43.08;35.94;58.94;;
37279;Laerm;7458;49.002;8.472;2023-05-07T03:06:01;45.01;36.69;59.36;;
37279;Laerm;7458;49.002;8.472;2023-05-07T03:08:27;46.06;37.12;60.02;;
37279;Laerm;7458;49.002;8.472;2023-05-07T03:10:53;47.68;37.32;61.68;;
37279;Laerm;7458;49.002;8.472;2023-05-07T03:13:19;47.75;38.21;61.46;;
37279;Laerm;7458;49.002;8.472;2023-05-07T03:15:44;47.57;38.21;63.19;;
37279;Laerm;7458;49.002;8.472;2023-05-07T03:18:22;48.02;38.37;62.50;;
37279;Laerm;7458;49.002;8.472;2023-05-07T03:20:48;48.34;39.35;62.99;;
37279;Laerm;7458;49.002;8.472;2023-05-07T03:23:14;48.33;38.95;64.03;;
37279;Laerm;7458;49.002;8.472;2023-05-07T03:25:40;52.60;38.95;65.70;;
37279;Laerm;7458;49.002;8.472;2023-05-07T03:28:06;52.00;38.81;65.55;;
37279;Laerm;7458;49.002;8.472;2023-05-07T03:30:31;50.68;38.67;64.02;;
37279;Laerm;7458;49.002;8.472;2023-05-07T03:32:57;51.14;38.95;64.22;;
37279;Laerm;7458;49.002;8.472;2023-05-07T03:35:23;50.69;39.34;63.59;;
37279;Laerm;7458;49.002;8.472;2023-05-07T03:37:49;52.93;38.05;69.68;;
37279;Laerm;7458;49.002;8.472;2023-05-07T03:40:15;51.16;39.21;71.02;;
37279;Laerm;7458;49.002;8.472;2023-05-07T03:42:40;47.79;38.67;60.18;;
37279;Laerm;7458;49.002;8.472;2023-05-07T03:45:07;45.26;38.37;54.94;;
37279;Laerm;7458;49.002;8.472;2023-05-07T03:47:33;45.08;38.21;54.62;;
37279;Laerm;7458;49.002;8.472;2023-05-07T03:49:59;45.22;38.05;54.71;;
37279;Laerm;7458;49.002;8.472;2023-05-07T03:52:24;45.85;37.88;55.65;;
37279;Laerm;7458;49.002;8.472;2023-05-07T03:54:54;54.78;38.37;78.17;;
37279;Laerm;7458;49.002;8.472;2023-05-07T03:57:20;46.45;39.34;56.29;;
37279;Laerm;7458;49.002;8.472;2023-05-07T03:59:47;44.84;37.12;58.35;;
37279;Laerm;7458;49.002;8.472;2023-05-07T04:02:12;47.53;37.52;64.95;;
37279;Laerm;7458;49.002;8.472;2023-05-07T04:04:38;44.72;39.21;57.97;;
37279;Laerm;7458;49.002;8.472;2023-05-07T04:07:04;45.61;38.67;59.16;;
37279;Laerm;7458;49.002;8.472;2023-05-07T04:09:29;46.66;38.21;59.43;;
37279;Laerm;7458;49.002;8.472;2023-05-07T04:11:55;44.58;38.67;54.88;;
37279;Laerm;7458;49.002;8.472;2023-05-07T04:14:21;46.44;38.81;63.51;;
37279;Laerm;7458;49.002;8.472;2023-05-07T04:16:47;44.29;38.81;56.11;;
37279;Laerm;7458;49.002;8.472;2023-05-07T04:19:13;43.09;39.21;52.95;;
37279;Laerm;7458;49.002;8.472;2023-05-07T04:21:39;46.93;38.81;64.17;;
37279;Laerm;7458;49.002;8.472;2023-05-07T04:24:05;46.38;38.99;63.38;;
37279;Laerm;7458;49.002;8.472;2023-05-07T04:26:31;45.31;39.21;63.60;;
37279;Laerm;7458;49.002;8.472;2023-05-07T04:28:57;46.78;38.52;63.89;;
37279;Laerm;7458;49.002;8.472;2023-05-07T04:31:24;44.17;38.67;57.08;;
37279;Laerm;7458;49.002;8.472;2023-05-07T04:33:50;44.11;38.67;56.29;;
37279;Laerm;7458;49.002;8.472;2023-05-07T04:36:17;43.28;38.37;58.45;;
37279;Laerm;7458;49.002;8.472;2023-05-07T04:38:43;42.97;38.37;53.47;;
37279;Laerm;7458;49.002;8.472;2023-05-07T04:41:09;44.27;39.34;54.85;;
37279;Laerm;7458;49.002;8.472;2023-05-07T04:43:35;44.33;38.52;60.86;;
37279;Laerm;7458;49.002;8.472;2023-05-07T04:46:00;44.80;38.81;60.72;;
37279;Laerm;7458;49.002;8.472;2023-05-07T04:48:26;53.79;37.88;74.95;;
37279;Laerm;7458;49.002;8.472;2023-05-07T04:50:53;42.15;37.70;51.12;;
37279;Laerm;7458;49.002;8.472;2023-05-07T04:53:19;54.75;38.21;71.92;;
37279;Laerm;7458;49.002;8.472;2023-05-07T04:55:45;53.47;38.52;71.74;;
37279;Laerm;7458;49.002;8.472;2023-05-07T04:58:12;51.76;38.81;73.57;;
37279;Laerm;7458;49.002;8.472;2023-05-07T05:00:38;53.28;38.95;74.13;;
37279;Laerm;7458;49.002;8.472;2023-05-07T05:03:08;43.84;37.70;65.43;;
37279;Laerm;7458;49.002;8.472;2023-05-07T05:05:34;56.91;39.21;78.41;;
37279;Laerm;7458;49.002;8.472;2023-05-07T05:07:59;51.33;37.70;68.76;;
37279;Laerm;7458;49.002;8.472;2023-05-07T05:10:25;49.77;37.52;66.75;;
37279;Laerm;7458;49.002;8.472;2023-05-07T05:12:51;50.22;36.69;68.16;;
37279;Laerm;7458;49.002;8.472;2023-05-07T05:15:17;45.04;38.37;61.24;;
37279;Laerm;7458;49.002;8.472;2023-05-07T05:17:43;44.07;37.88;57.35;;
37279;Laerm;7458;49.002;8.472;2023-05-07T05:20:09;46.62;39.08;62.51;;
37279;Laerm;7458;49.002;8.472;2023-05-07T05:22:36;41.96;37.70;51.13;;
37279;Laerm;7458;49.002;8.472;2023-05-07T05:25:02;44.75;37.88;67.88;;
37279;Laerm;7458;49.002;8.472;2023-05-07T05:27:28;46.97;37.35;65.01;;
37279;Laerm;7458;49.002;8.472;2023-05-07T05:29:54;43.09;37.88;56.06;;
37279;Laerm;7458;49.002;8.472;2023-05-07T05:32:20;52.47;38.74;68.70;;
37279;Laerm;7458;49.002;8.472;2023-05-07T05:34:46;42.73;38.05;49.69;;
37279;Laerm;7458;49.002;8.472;2023-05-07T05:37:11;44.97;37.88;58.97;;
37279;Laerm;7458;49.002;8.472;2023-05-07T05:39:37;46.36;36.45;68.56;;
37279;Laerm;7458;49.002;8.472;2023-05-07T05:42:03;48.43;38.21;69.83;;
37279;Laerm;7458;49.002;8.472;2023-05-07T05:44:29;43.86;38.95;55.25;;
37279;Laerm;7458;49.002;8.472;2023-05-07T05:46:54;44.33;38.21;57.33;;
37279;Laerm;7458;49.002;8.472;2023-05-07T05:49:23;45.76;38.81;62.60;;
37279;Laerm;7458;49.002;8.472;2023-05-07T05:51:48;49.91;39.08;69.45;;
37279;Laerm;7458;49.002;8.472;2023-05-07T05:54:14;45.86;39.46;66.25;;
37279;Laerm;7458;49.002;8.472;2023-05-07T05:56:41;46.41;39.21;62.51;;
37279;Laerm;7458;49.002;8.472;2023-05-07T05:59:07;44.21;38.81;60.61;;
37279;Laerm;7458;49.002;8.472;2023-05-07T06:01:33;44.16;40.53;54.05;;
37279;Laerm;7458;49.002;8.472;2023-05-07T06:03:59;53.17;40.80;67.99;;
37279;Laerm;7458;49.002;8.472;2023-05-07T06:06:25;54.20;39.46;69.23;;
37279;Laerm;7458;49.002;8.472;2023-05-07T06:08:51;51.93;40.13;70.01;;
37279;Laerm;7458;49.002;8.472;2023-05-07T06:11:17;50.24;39.81;66.73;;
37279;Laerm;7458;49.002;8.472;2023-05-07T06:13:42;49.91;38.37;68.24;;
37279;Laerm;7458;49.002;8.472;2023-05-07T06:16:08;47.56;39.81;66.14;;
37279;Laerm;7458;49.002;8.472;2023-05-07T06:18:34;46.48;39.92;65.59;;
37279;Laerm;7458;49.002;8.472;2023-05-07T06:21:01;49.41;41.14;75.02;;
37279;Laerm;7458;49.002;8.472;2023-05-07T06:23:27;48.29;41.96;68.51;;
37279;Laerm;7458;49.002;8.472;2023-05-07T06:25:53;47.29;41.06;67.15;;
37279;Laerm;7458;49.002;8.472;2023-05-07T06:28:19;54.36;41.68;81.53;;
37279;Laerm;7458;49.002;8.472;2023-05-07T06:30:44;44.56;41.30;51.14;;
37279;Laerm;7458;49.002;8.472;2023-05-07T06:33:13;46.88;41.68;62.40;;
37279;Laerm;7458;49.002;8.472;2023-05-07T06:35:39;51.76;41.68;83.58;;
37279;Laerm;7458;49.002;8.472;2023-05-07T06:38:04;47.78;41.89;60.98;;
37279;Laerm;7458;49.002;8.472;2023-05-07T06:40:30;50.65;42.22;67.73;;
37279;Laerm;7458;49.002;8.472;2023-05-07T06:42:56;47.93;41.89;63.98;;
37279;Laerm;7458;49.002;8.472;2023-05-07T06:45:22;57.83;42.47;79.05;;
37279;Laerm;7458;49.002;8.472;2023-05-07T06:47:47;59.65;42.65;83.21;;
37279;Laerm;7458;49.002;8.472;2023-05-07T06:50:13;46.18;42.53;57.06;;
37279;Laerm;7458;49.002;8.472;2023-05-07T06:52:41;50.81;42.88;67.92;;
37279;Laerm;7458;49.002;8.472;2023-05-07T06:55:08;47.64;43.63;54.95;;
37279;Laerm;7458;49.002;8.472;2023-05-07T06:57:34;47.81;43.29;60.56;;
37279;Laerm;7458;49.002;8.472;2023-05-07T07:00:00;46.62;43.09;55.72;;
37279;Laerm;7458;49.002;8.472;2023-05-07T07:02:26;48.04;42.76;78.55;;
37279;Laerm;7458;49.002;8.472;2023-05-07T07:04:51;50.06;42.82;67.96;;
37279;Laerm;7458;49.002;8.472;2023-05-07T07:07:17;49.22;42.76;71.97;;
37279;Laerm;7458;49.002;8.472;2023-05-07T07:09:46;46.31;42.29;59.08;;
37279;Laerm;7458;49.002;8.472;2023-05-07T07:12:14;49.96;43.34;66.82;;
37279;Laerm;7458;49.002;8.472;2023-05-07T07:14:40;51.81;42.82;72.01;;
37279;Laerm;7458;49.002;8.472;2023-05-07T07:17:06;46.26;42.22;56.26;;
37279;Laerm;7458;49.002;8.472;2023-05-07T07:19:32;47.39;42.93;61.52;;
37279;Laerm;7458;49.002;8.472;2023-05-07T07:21:58;51.89;43.24;68.56;;
37279;Laerm;7458;49.002;8.472;2023-05-07T07:24:23;51.00;42.53;67.93;;
37279;Laerm;7458;49.002;8.472;2023-05-07T07:26:49;48.79;43.54;67.40;;
37279;Laerm;7458;49.002;8.472;2023-05-07T07:29:15;53.32;43.63;69.91;;
37279;Laerm;7458;49.002;8.472;2023-05-07T07:31:40;52.21;43.14;67.78;;
37279;Laerm;7458;49.002;8.472;2023-05-07T07:34:06;50.64;43.19;67.47;;
37279;Laerm;7458;49.002;8.472;2023-05-07T07:36:32;50.24;43.14;66.99;;
37279;Laerm;7458;49.002;8.472;2023-05-07T07:38:57;54.71;42.82;73.37;;
37279;Laerm;7458;49.002;8.472;2023-05-07T07:41:23;46.50;43.58;54.82;;
37279;Laerm;7458;49.002;8.472;2023-05-07T07:43:49;49.97;42.95;64.56;;
37279;Laerm;7458;49.002;8.472;2023-05-07T07:46:14;53.69;42.71;70.02;;
37279;Laerm;7458;49.002;8.472;2023-05-07T07:48:40;54.10;43.29;70.73;;
37279;Laerm;7458;49.002;8.472;2023-05-07T07:51:06;49.87;43.58;66.71;;
37279;Laerm;7458;49.002;8.472;2023-05-07T07:53:32;53.14;44.62;71.58;;
37279;Laerm;7458;49.002;8.472;2023-05-07T07:55:57;53.17;44.54;71.63;;
37279;Laerm;7458;49.002;8.472;2023-05-07T07:58:23;56.34;44.83;72.43;;
37279;Laerm;7458;49.002;8.472;2023-05-07T08:00:50;50.99;42.65;61.76;;
37279;Laerm;7458;49.002;8.472;2023-05-07T08:03:16;51.40;42.47;69.50;;
37279;Laerm;7458;49.002;8.472;2023-05-07T08:05:43;48.70;42.76;61.85;;
37279;Laerm;7458;49.002;8.472;2023-05-07T08:08:09;48.66;42.29;65.12;;
37279;Laerm;7458;49.002;8.472;2023-05-07T08:10:35;53.90;42.53;71.92;;
37279;Laerm;7458;49.002;8.472;2023-05-07T08:13:03;53.20;42.16;70.24;;
37279;Laerm;7458;49.002;8.472;2023-05-07T08:15:30;50.04;41.75;67.25;;
37279;Laerm;7458;49.002;8.472;2023-05-07T08:17:57;51.71;42.16;74.69;;
37279;Laerm;7458;49.002;8.472;2023-05-07T08:20:23;50.64;42.82;75.59;;
37279;Laerm;7458;49.002;8.472;2023-05-07T08:22:49;54.04;42.71;72.65;;
37279;Laerm;7458;49.002;8.472;2023-05-07T08:25:16;48.24;42.16;67.22;;
37279;Laerm;7458;49.002;8.472;2023-05-07T08:27:42;52.30;42.29;68.53;;
37279;Laerm;7458;49.002;8.472;2023-05-07T08:30:08;51.20;42.16;69.24;;
37279;Laerm;7458;49.002;8.472;2023-05-07T08:32:35;52.31;42.16;75.75;;
37279;Laerm;7458;49.002;8.472;2023-05-07T08:35:00;51.51;42.41;68.87;;
37279;Laerm;7458;49.002;8.472;2023-05-07T08:37:26;52.09;43.49;68.56;;
37279;Laerm;7458;49.002;8.472;2023-05-07T08:39:52;51.86;44.82;68.57;;
37279;Laerm;7458;49.002;8.472;2023-05-07T08:42:19;58.50;44.03;80.24;;
37279;Laerm;7458;49.002;8.472;2023-05-07T08:44:46;51.37;44.07;74.74;;
37279;Laerm;7458;49.002;8.472;2023-05-07T08:47:13;49.32;43.86;63.48;;
37279;Laerm;7458;49.002;8.472;2023-05-07T08:49:38;50.42;43.63;67.85;;
37279;Laerm;7458;49.002;8.472;2023-05-07T08:52:05;52.55;43.14;70.75;;
37279;Laerm;7458;49.002;8.472;2023-05-07T08:54:32;48.73;41.82;66.09;;
37279;Laerm;7458;49.002;8.472;2023-05-07T08:56:58;54.19;42.03;84.41;;
37279;Laerm;7458;49.002;8.472;2023-05-07T08:59:25;60.50;43.19;85.07;;
37279;Laerm;7458;49.002;8.472;2023-05-07T09:01:53;50.49;41.82;70.31;;
37279;Laerm;7458;49.002;8.472;2023-05-07T09:04:19;52.35;42.29;68.17;;
37279;Laerm;7458;49.002;8.472;2023-05-07T09:06:45;53.83;42.09;71.12;;
37279;Laerm;7458;49.002;8.472;2023-05-07T09:09:16;53.55;41.82;72.81;;
37279;Laerm;7458;49.002;8.472;2023-05-07T09:11:44;53.16;41.53;72.94;;
37279;Laerm;7458;49.002;8.472;2023-05-07T09:14:10;45.93;41.53;62.59;;
37279;Laerm;7458;49.002;8.472;2023-05-07T09:16:35;50.99;41.14;73.08;;
37279;Laerm;7458;49.002;8.472;2023-05-07T09:19:01;48.13;41.89;67.25;;
37279;Laerm;7458;49.002;8.472;2023-05-07T09:21:27;53.19;41.61;72.14;;
37279;Laerm;7458;49.002;8.472;2023-05-07T09:23:55;52.58;41.22;67.23;;
37279;Laerm;7458;49.002;8.472;2023-05-07T09:26:24;52.00;42.93;70.80;;
37279;Laerm;7458;49.002;8.472;2023-05-07T09:28:51;55.23;42.93;73.82;;
37279;Laerm;7458;49.002;8.472;2023-05-07T09:31:17;57.21;42.82;75.93;;
37279;Laerm;7458;49.002;8.472;2023-05-07T09:33:43;57.16;43.24;73.15;;
37279;Laerm;7458;49.002;8.472;2023-05-07T09:36:10;52.38;40.98;69.45;;
37279;Laerm;7458;49.002;8.472;2023-05-07T09:38:37;45.08;40.80;50.56;;
37279;Laerm;7458;49.002;8.472;2023-05-07T09:41:11;50.33;41.22;69.28;;
37279;Laerm;7458;49.002;8.472;2023-05-07T09:43:39;48.18;40.62;69.22;;
37279;Laerm;7458;49.002;8.472;2023-05-07T09:46:14;62.18;41.46;85.30;;
37279;Laerm;7458;49.002;8.472;2023-05-07T09:48:43;47.69;40.89;67.59;;
37279;Laerm;7458;49.002;8.472;2023-05-07T09:51:51;51.68;40.98;71.28;;
37279;Laerm;7458;49.002;8.472;2023-05-07T09:54:18;51.22;40.98;68.12;;
37279;Laerm;7458;49.002;8.472;2023-05-07T09:56:48;46.57;40.89;60.90;;
37279;Laerm;7458;49.002;8.472;2023-05-07T09:59:16;52.04;40.62;71.72;;
37279;Laerm;7458;49.002;8.472;2023-05-07T10:01:44;48.46;40.43;64.50;;
37279;Laerm;7458;49.002;8.472;2023-05-07T10:04:14;49.05;40.62;66.23;;
37279;Laerm;7458;49.002;8.472;2023-05-07T10:06:40;45.34;40.33;55.52;;
37279;Laerm;7458;49.002;8.472;2023-05-07T10:09:08;54.21;42.36;70.00;;
37279;Laerm;7458;49.002;8.472;2023-05-07T10:11:36;60.46;41.22;83.02;;
37279;Laerm;7458;49.002;8.472;2023-05-07T10:14:04;56.77;41.06;76.91;;
37279;Laerm;7458;49.002;8.472;2023-05-07T10:16:35;53.53;40.13;71.07;;
37279;Laerm;7458;49.002;8.472;2023-05-07T10:19:08;50.96;40.53;67.77;;
37279;Laerm;7458;49.002;8.472;2023-05-07T10:21:44;48.31;39.92;64.26;;
37279;Laerm;7458;49.002;8.472;2023-05-07T10:24:20;49.88;41.89;67.75;;
37279;Laerm;7458;49.002;8.472;2023-05-07T10:26:51;51.93;41.53;73.18;;
37279;Laerm;7458;49.002;8.472;2023-05-07T10:32:09;50.90;42.03;70.88;;
37279;Laerm;7458;49.002;8.472;2023-05-07T10:34:47;56.04;41.53;71.75;;
37279;Laerm;7458;49.002;8.472;2023-05-07T10:37:14;50.84;40.96;69.30;;
37279;Laerm;7458;49.002;8.472;2023-05-07T10:39:41;48.68;41.14;62.63;;
37279;Laerm;7458;49.002;8.472;2023-05-07T10:42:14;49.39;40.13;67.66;;
37279;Laerm;7458;49.002;8.472;2023-05-07T10:44:40;51.34;41.30;68.29;;
37279;Laerm;7458;49.002;8.472;2023-05-07T10:47:11;50.66;39.57;65.61;;
37279;Laerm;7458;49.002;8.472;2023-05-07T10:52:32;47.73;38.95;63.77;;
37279;Laerm;7458;49.002;8.472;2023-05-07T10:57:43;52.23;40.33;68.23;;
37279;Laerm;7458;49.002;8.472;2023-05-07T11:05:30;49.06;39.92;67.98;;
37279;Laerm;7458;49.002;8.472;2023-05-07T11:08:05;51.87;40.89;71.67;;
37279;Laerm;7458;49.002;8.472;2023-05-07T11:10:50;45.59;40.23;56.17;;
37279;Laerm;7458;49.002;8.472;2023-05-07T11:13:17;59.72;41.30;78.77;;
37279;Laerm;7458;49.002;8.472;2023-05-07T11:15:48;58.26;41.46;76.89;;
37279;Laerm;7458;49.002;8.472;2023-05-07T11:18:16;52.17;39.58;72.38;;
37279;Laerm;7458;49.002;8.472;2023-05-07T11:20:53;49.97;42.19;66.44;;
37279;Laerm;7458;49.002;8.472;2023-05-07T11:26:03;57.28;40.62;76.56;;
37279;Laerm;7458;49.002;8.472;2023-05-07T11:28:31;55.25;40.89;76.03;;
37279;Laerm;7458;49.002;8.472;2023-05-07T11:30:57;46.48;40.71;65.45;;
37279;Laerm;7458;49.002;8.472;2023-05-07T11:33:23;44.69;40.03;59.08;;
37279;Laerm;7458;49.002;8.472;2023-05-07T11:35:53;55.38;39.21;73.90;;
37279;Laerm;7458;49.002;8.472;2023-05-07T11:38:19;50.43;40.13;69.45;;
37279;Laerm;7458;49.002;8.472;2023-05-07T11:40:59;52.77;39.92;71.07;;
37279;Laerm;7458;49.002;8.472;2023-05-07T11:43:31;50.29;40.80;65.21;;
37279;Laerm;7458;49.002;8.472;2023-05-07T11:46:09;45.29;40.03;57.54;;
37279;Laerm;7458;49.002;8.472;2023-05-07T11:48:36;51.91;40.98;68.92;;
37279;Laerm;7458;49.002;8.472;2023-05-07T11:51:05;53.17;40.53;72.22;;
37279;Laerm;7458;49.002;8.472;2023-05-07T11:53:40;55.73;40.98;73.24;;
37279;Laerm;7458;49.002;8.472;2023-05-07T11:56:07;54.07;39.81;78.21;;
37279;Laerm;7458;49.002;8.472;2023-05-07T11:58:40;50.69;39.34;67.23;;
37279;Laerm;7458;49.002;8.472;2023-05-07T12:01:12;50.01;40.71;68.68;;
37279;Laerm;7458;49.002;8.472;2023-05-07T12:03:44;51.84;41.19;71.46;;
37279;Laerm;7458;49.002;8.472;2023-05-07T12:06:12;50.44;41.14;69.66;;
37279;Laerm;7458;49.002;8.472;2023-05-07T12:08:41;48.35;40.03;64.41;;
37279;Laerm;7458;49.002;8.472;2023-05-07T12:11:10;58.35;41.61;85.19;;
37279;Laerm;7458;49.002;8.472;2023-05-07T12:13:37;54.53;41.89;69.74;;
37279;Laerm;7458;49.002;8.472;2023-05-07T12:16:07;48.74;41.30;66.60;;
37279;Laerm;7458;49.002;8.472;2023-05-07T12:18:35;51.28;41.14;66.17;;
37279;Laerm;7458;49.002;8.472;2023-05-07T12:21:02;49.29;40.89;66.57;;
37279;Laerm;7458;49.002;8.472;2023-05-07T12:23:29;50.30;41.82;66.92;;
37279;Laerm;7458;49.002;8.472;2023-05-07T12:25:55;51.92;42.22;80.35;;
37279;Laerm;7458;49.002;8.472;2023-05-07T12:28:21;56.26;41.82;82.28;;
37279;Laerm;7458;49.002;8.472;2023-05-07T12:30:50;51.76;41.68;68.54;;
37279;Laerm;7458;49.002;8.472;2023-05-07T12:33:24;51.64;41.22;78.54;;
37279;Laerm;7458;49.002;8.472;2023-05-07T12:35:50;51.73;40.98;69.67;;
37279;Laerm;7458;49.002;8.472;2023-05-07T12:38:17;44.86;40.71;60.47;;
37279;Laerm;7458;49.002;8.472;2023-05-07T12:40:54;49.32;41.61;68.01;;
37279;Laerm;7458;49.002;8.472;2023-05-07T12:43:25;52.16;40.71;69.39;;
37279;Laerm;7458;49.002;8.472;2023-05-07T12:45:54;52.47;41.38;67.38;;
37279;Laerm;7458;49.002;8.472;2023-05-07T12:48:21;54.36;42.09;70.49;;
37279;Laerm;7458;49.002;8.472;2023-05-07T12:50:54;52.47;41.22;69.07;;
37279;Laerm;7458;49.002;8.472;2023-05-07T12:53:23;56.34;41.53;74.49;;
37279;Laerm;7458;49.002;8.472;2023-05-07T12:55:55;55.66;41.75;73.23;;
37279;Laerm;7458;49.002;8.472;2023-05-07T12:58:27;51.96;41.06;70.51;;
37279;Laerm;7458;49.002;8.472;2023-05-07T13:00:55;55.36;42.03;73.21;;
37279;Laerm;7458;49.002;8.472;2023-05-07T13:06:07;55.46;42.59;79.24;;
37279;Laerm;7458;49.002;8.472;2023-05-07T13:08:40;48.26;42.85;68.64;;
37279;Laerm;7458;49.002;8.472;2023-05-07T13:11:10;52.24;42.82;70.61;;
37279;Laerm;7458;49.002;8.472;2023-05-07T13:13:38;53.39;43.29;70.35;;
37279;Laerm;7458;49.002;8.472;2023-05-07T13:16:07;50.14;42.65;64.33;;
37279;Laerm;7458;49.002;8.472;2023-05-07T13:18:33;55.56;43.04;76.92;;
37279;Laerm;7458;49.002;8.472;2023-05-07T13:21:00;54.79;44.11;75.16;;
37279;Laerm;7458;49.002;8.472;2023-05-07T13:23:27;51.63;42.29;69.39;;
37279;Laerm;7458;49.002;8.472;2023-05-07T13:25:54;54.66;43.04;73.57;;
37279;Laerm;7458;49.002;8.472;2023-05-07T13:28:20;50.68;42.59;67.07;;
37279;Laerm;7458;49.002;8.472;2023-05-07T13:30:46;49.93;42.41;68.88;;
37279;Laerm;7458;49.002;8.472;2023-05-07T13:33:13;60.05;42.82;78.35;;
37279;Laerm;7458;49.002;8.472;2023-05-07T13:35:39;62.98;43.19;85.56;;
37279;Laerm;7458;49.002;8.472;2023-05-07T13:38:05;52.07;42.82;67.66;;
37279;Laerm;7458;49.002;8.472;2023-05-07T13:40:31;48.45;41.89;71.85;;
37279;Laerm;7458;49.002;8.472;2023-05-07T13:42:58;53.64;43.14;74.84;;
37279;Laerm;7458;49.002;8.472;2023-05-07T13:45:25;57.20;43.09;77.03;;
37279;Laerm;7458;49.002;8.472;2023-05-07T13:47:51;48.06;42.53;70.59;;
37279;Laerm;7458;49.002;8.472;2023-05-07T13:50:17;55.38;43.34;72.83;;
37279;Laerm;7458;49.002;8.472;2023-05-07T13:52:44;48.06;42.41;63.49;;
37279;Laerm;7458;49.002;8.472;2023-05-07T13:55:17;54.73;42.79;80.45;;
37279;Laerm;7458;49.002;8.472;2023-05-07T13:57:43;53.78;42.35;68.38;;
37279;Laerm;7458;49.002;8.472;2023-05-07T14:00:10;55.69;42.47;73.06;;
37279;Laerm;7458;49.002;8.472;2023-05-07T14:02:37;48.26;41.61;60.54;;
37279;Laerm;7458;49.002;8.472;2023-05-07T14:05:03;52.23;40.80;69.93;;
37279;Laerm;7458;49.002;8.472;2023-05-07T14:07:28;49.14;40.89;67.81;;
37279;Laerm;7458;49.002;8.472;2023-05-07T14:09:55;47.63;40.43;68.85;;
37279;Laerm;7458;49.002;8.472;2023-05-07T14:12:21;53.25;42.35;70.36;;
37279;Laerm;7458;49.002;8.472;2023-05-07T14:14:46;50.33;41.22;76.46;;